sensor_id;sensor_type;location;lat;lon;timestamp;pressure;altitude;pressure_sealevel;temperature
28305;BMP280;15569;42.652;23.040;2023-03-11T00:01:12;91225.69;;;11.32
28305;BMP280;15569;42.652;23.040;2023-03-11T00:03:37;91239.75;;;11.56
28305;BMP280;15569;42.652;23.040;2023-03-11T00:06:03;91244.63;;;11.62
28305;BMP280;15569;42.652;23.040;2023-03-11T00:08:29;91224.69;;;11.51
28305;BMP280;15569;42.652;23.040;2023-03-11T00:10:57;91244.72;;;11.66
28305;BMP280;15569;42.652;23.040;2023-03-11T00:13:25;91235.91;;;11.69
28305;BMP280;15569;42.652;23.040;2023-03-11T00:15:52;91234.22;;;11.90
28305;BMP280;15569;42.652;23.040;2023-03-11T00:18:22;91223.56;;;12.02
28305;BMP280;15569;42.652;23.040;2023-03-11T00:20:53;91214.72;;;12.04
28305;BMP280;15569;42.652;23.040;2023-03-11T00:23:19;91221.00;;;12.12
28305;BMP280;15569;42.652;23.040;2023-03-11T00:25:45;91212.91;;;12.16
28305;BMP280;15569;42.652;23.040;2023-03-11T00:28:11;91217.66;;;12.18
28305;BMP280;15569;42.652;23.040;2023-03-11T00:30:38;91215.13;;;12.28
28305;BMP280;15569;42.652;23.040;2023-03-11T00:33:03;91211.03;;;12.29
28305;BMP280;15569;42.652;23.040;2023-03-11T00:35:30;91208.31;;;12.29
28305;BMP280;15569;42.652;23.040;2023-03-11T00:37:58;91198.78;;;12.28
28305;BMP280;15569;42.652;23.040;2023-03-11T00:40:26;91189.13;;;12.21
28305;BMP280;15569;42.652;23.040;2023-03-11T00:42:52;91193.28;;;12.24
28305;BMP280;15569;42.652;23.040;2023-03-11T00:45:17;91201.59;;;12.34
28305;BMP280;15569;42.652;23.040;2023-03-11T00:47:43;91202.31;;;12.38
28305;BMP280;15569;42.652;23.040;2023-03-11T00:50:14;91209.84;;;12.40
28305;BMP280;15569;42.652;23.040;2023-03-11T00:52:40;91208.41;;;12.35
28305;BMP280;15569;42.652;23.040;2023-03-11T00:55:05;91195.53;;;12.37
28305;BMP280;15569;42.652;23.040;2023-03-11T00:57:31;91188.78;;;12.42
28305;BMP280;15569;42.652;23.040;2023-03-11T00:59:58;91186.88;;;12.51
28305;BMP280;15569;42.652;23.040;2023-03-11T01:02:23;91182.16;;;12.55
28305;BMP280;15569;42.652;23.040;2023-03-11T01:04:55;91178.66;;;12.49
28305;BMP280;15569;42.652;23.040;2023-03-11T01:07:21;91178.59;;;12.47
28305;BMP280;15569;42.652;23.040;2023-03-11T01:09:46;91172.25;;;12.28
28305;BMP280;15569;42.652;23.040;2023-03-11T01:12:12;91158.81;;;12.42
28305;BMP280;15569;42.652;23.040;2023-03-11T01:14:37;91147.84;;;12.38
28305;BMP280;15569;42.652;23.040;2023-03-11T01:17:03;91142.38;;;12.34
28305;BMP280;15569;42.652;23.040;2023-03-11T01:19:28;91149.31;;;12.00
28305;BMP280;15569;42.652;23.040;2023-03-11T01:21:53;91150.56;;;11.13
28305;BMP280;15569;42.652;23.040;2023-03-11T01:24:19;91155.09;;;11.02
28305;BMP280;15569;42.652;23.040;2023-03-11T01:26:44;91139.94;;;11.27
28305;BMP280;15569;42.652;23.040;2023-03-11T01:29:09;91149.75;;;11.42
28305;BMP280;15569;42.652;23.040;2023-03-11T01:31:35;91145.56;;;10.99
28305;BMP280;15569;42.652;23.040;2023-03-11T01:34:00;91123.88;;;10.70
28305;BMP280;15569;42.652;23.040;2023-03-11T01:36:26;91136.78;;;11.03
28305;BMP280;15569;42.652;23.040;2023-03-11T01:38:51;91130.00;;;10.70
28305;BMP280;15569;42.652;23.040;2023-03-11T01:41:17;91131.41;;;11.07
28305;BMP280;15569;42.652;23.040;2023-03-11T01:46:12;91145.31;;;11.25
28305;BMP280;15569;42.652;23.040;2023-03-11T01:48:39;91137.91;;;11.28
28305;BMP280;15569;42.652;23.040;2023-03-11T01:51:06;91144.88;;;11.01
28305;BMP280;15569;42.652;23.040;2023-03-11T01:53:32;91144.50;;;10.81
28305;BMP280;15569;42.652;23.040;2023-03-11T01:55:58;91139.56;;;11.07
28305;BMP280;15569;42.652;23.040;2023-03-11T01:58:26;91158.41;;;11.33
28305;BMP280;15569;42.652;23.040;2023-03-11T02:00:53;91158.63;;;11.47
28305;BMP280;15569;42.652;23.040;2023-03-11T02:03:36;91159.22;;;11.41
28305;BMP280;15569;42.652;23.040;2023-03-11T02:06:05;91163.88;;;11.35
28305;BMP280;15569;42.652;23.040;2023-03-11T02:08:32;91162.94;;;11.20
28305;BMP280;15569;42.652;23.040;2023-03-11T02:11:03;91175.53;;;11.39
28305;BMP280;15569;42.652;23.040;2023-03-11T02:13:31;91179.03;;;11.10
28305;BMP280;15569;42.652;23.040;2023-03-11T02:15:58;91184.66;;;11.18
28305;BMP280;15569;42.652;23.040;2023-03-11T02:18:24;91185.38;;;10.87
28305;BMP280;15569;42.652;23.040;2023-03-11T02:23:26;91204.91;;;10.79
28305;BMP280;15569;42.652;23.040;2023-03-11T02:26:05;91202.31;;;10.54
28305;BMP280;15569;42.652;23.040;2023-03-11T02:28:32;91204.00;;;10.69
28305;BMP280;15569;42.652;23.040;2023-03-11T02:30:59;91190.72;;;10.83
28305;BMP280;15569;42.652;23.040;2023-03-11T02:33:28;91201.50;;;10.79
28305;BMP280;15569;42.652;23.040;2023-03-11T02:35:55;91200.47;;;10.94
28305;BMP280;15569;42.652;23.040;2023-03-11T02:38:21;91205.97;;;10.98
28305;BMP280;15569;42.652;23.040;2023-03-11T02:43:15;91206.84;;;11.06
28305;BMP280;15569;42.652;23.040;2023-03-11T02:45:44;91200.88;;;11.16
28305;BMP280;15569;42.652;23.040;2023-03-11T02:48:11;91197.66;;;11.24
28305;BMP280;15569;42.652;23.040;2023-03-11T02:50:37;91202.41;;;11.23
28305;BMP280;15569;42.652;23.040;2023-03-11T02:53:04;91200.56;;;11.34
28305;BMP280;15569;42.652;23.040;2023-03-11T02:55:30;91193.88;;;11.39
28305;BMP280;15569;42.652;23.040;2023-03-11T02:57:55;91194.66;;;11.45
28305;BMP280;15569;42.652;23.040;2023-03-11T03:00:20;91191.53;;;11.61
28305;BMP280;15569;42.652;23.040;2023-03-11T03:02:46;91199.81;;;11.67
28305;BMP280;15569;42.652;23.040;2023-03-11T03:05:16;91186.09;;;11.59
28305;BMP280;15569;42.652;23.040;2023-03-11T03:07:41;91186.78;;;11.59
28305;BMP280;15569;42.652;23.040;2023-03-11T03:10:07;91189.16;;;11.41
28305;BMP280;15569;42.652;23.040;2023-03-11T03:12:32;91195.31;;;11.08
28305;BMP280;15569;42.652;23.040;2023-03-11T03:14:58;91208.25;;;10.76
28305;BMP280;15569;42.652;23.040;2023-03-11T03:17:23;91183.09;;;10.44
28305;BMP280;15569;42.652;23.040;2023-03-11T03:19:49;91209.88;;;10.27
28305;BMP280;15569;42.652;23.040;2023-03-11T03:22:14;91211.59;;;10.43
28305;BMP280;15569;42.652;23.040;2023-03-11T03:24:40;91202.88;;;10.48
28305;BMP280;15569;42.652;23.040;2023-03-11T03:27:05;91198.84;;;10.49
28305;BMP280;15569;42.652;23.040;2023-03-11T03:29:31;91203.41;;;10.41
28305;BMP280;15569;42.652;23.040;2023-03-11T03:31:56;91201.59;;;10.51
28305;BMP280;15569;42.652;23.040;2023-03-11T03:34:21;91189.22;;;10.44
28305;BMP280;15569;42.652;23.040;2023-03-11T03:36:47;91201.63;;;10.85
28305;BMP280;15569;42.652;23.040;2023-03-11T03:39:12;91186.84;;;10.92
28305;BMP280;15569;42.652;23.040;2023-03-11T03:41:37;91199.34;;;11.05
28305;BMP280;15569;42.652;23.040;2023-03-11T03:44:03;91194.38;;;11.31
28305;BMP280;15569;42.652;23.040;2023-03-11T03:46:28;91179.50;;;11.34
28305;BMP280;15569;42.652;23.040;2023-03-11T03:48:54;91190.69;;;11.50
28305;BMP280;15569;42.652;23.040;2023-03-11T03:51:19;91201.84;;;11.66
28305;BMP280;15569;42.652;23.040;2023-03-11T03:53:44;91181.75;;;11.10
28305;BMP280;15569;42.652;23.040;2023-03-11T03:56:16;91205.03;;;10.85
28305;BMP280;15569;42.652;23.040;2023-03-11T03:58:42;91187.91;;;11.13
28305;BMP280;15569;42.652;23.040;2023-03-11T04:01:08;91193.66;;;11.27
28305;BMP280;15569;42.652;23.040;2023-03-11T04:03:34;91195.41;;;11.48
28305;BMP280;15569;42.652;23.040;2023-03-11T04:06:29;91184.63;;;11.54
28305;BMP280;15569;42.652;23.040;2023-03-11T04:08:55;91186.91;;;11.67
28305;BMP280;15569;42.652;23.040;2023-03-11T04:11:21;91193.78;;;11.72
28305;BMP280;15569;42.652;23.040;2023-03-11T04:13:47;91194.44;;;11.71
28305;BMP280;15569;42.652;23.040;2023-03-11T04:16:21;91195.25;;;11.77
28305;BMP280;15569;42.652;23.040;2023-03-11T04:18:47;91208.97;;;11.85
28305;BMP280;15569;42.652;23.040;2023-03-11T04:21:13;91200.22;;;11.89
28305;BMP280;15569;42.652;23.040;2023-03-11T04:23:39;91199.63;;;11.97
28305;BMP280;15569;42.652;23.040;2023-03-11T04:26:04;91196.25;;;11.98
28305;BMP280;15569;42.652;23.040;2023-03-11T04:28:29;91189.34;;;11.89
28305;BMP280;15569;42.652;23.040;2023-03-11T04:30:55;91178.38;;;11.87
28305;BMP280;15569;42.652;23.040;2023-03-11T04:33:21;91200.38;;;11.59
28305;BMP280;15569;42.652;23.040;2023-03-11T04:35:46;91196.56;;;11.03
28305;BMP280;15569;42.652;23.040;2023-03-11T04:38:11;91205.81;;;11.24
28305;BMP280;15569;42.652;23.040;2023-03-11T04:40:37;91204.09;;;11.40
28305;BMP280;15569;42.652;23.040;2023-03-11T04:43:03;91197.53;;;11.53
28305;BMP280;15569;42.652;23.040;2023-03-11T04:45:29;91196.97;;;11.59
28305;BMP280;15569;42.652;23.040;2023-03-11T04:47:54;91199.16;;;11.68
28305;BMP280;15569;42.652;23.040;2023-03-11T04:50:20;91208.75;;;11.71
28305;BMP280;15569;42.652;23.040;2023-03-11T04:52:46;91213.50;;;11.71
28305;BMP280;15569;42.652;23.040;2023-03-11T04:55:12;91204.84;;;11.82
28305;BMP280;15569;42.652;23.040;2023-03-11T04:57:38;91206.91;;;11.84
28305;BMP280;15569;42.652;23.040;2023-03-11T05:00:05;91212.00;;;11.64
28305;BMP280;15569;42.652;23.040;2023-03-11T05:02:34;91206.16;;;11.42
28305;BMP280;15569;42.652;23.040;2023-03-11T05:05:00;91218.22;;;11.68
28305;BMP280;15569;42.652;23.040;2023-03-11T05:07:25;91215.22;;;11.52
28305;BMP280;15569;42.652;23.040;2023-03-11T05:09:51;91221.34;;;11.55
28305;BMP280;15569;42.652;23.040;2023-03-11T05:12:16;91228.31;;;11.26
28305;BMP280;15569;42.652;23.040;2023-03-11T05:14:41;91219.56;;;10.98
28305;BMP280;15569;42.652;23.040;2023-03-11T05:17:07;91225.06;;;11.00
28305;BMP280;15569;42.652;23.040;2023-03-11T05:19:34;91240.34;;;10.83
28305;BMP280;15569;42.652;23.040;2023-03-11T05:22:03;91248.03;;;10.95
28305;BMP280;15569;42.652;23.040;2023-03-11T05:24:29;91235.75;;;10.92
28305;BMP280;15569;42.652;23.040;2023-03-11T05:26:55;91244.78;;;11.00
28305;BMP280;15569;42.652;23.040;2023-03-11T05:29:21;91248.50;;;11.17
28305;BMP280;15569;42.652;23.040;2023-03-11T05:31:46;91251.50;;;11.29
28305;BMP280;15569;42.652;23.040;2023-03-11T05:34:12;91234.91;;;11.17
28305;BMP280;15569;42.652;23.040;2023-03-11T05:36:37;91238.13;;;11.41
28305;BMP280;15569;42.652;23.040;2023-03-11T05:39:03;91249.00;;;11.41
28305;BMP280;15569;42.652;23.040;2023-03-11T05:41:29;91258.63;;;11.48
28305;BMP280;15569;42.652;23.040;2023-03-11T05:43:54;91257.09;;;11.37
28305;BMP280;15569;42.652;23.040;2023-03-11T05:46:19;91253.03;;;11.38
28305;BMP280;15569;42.652;23.040;2023-03-11T05:48:45;91251.78;;;11.45
28305;BMP280;15569;42.652;23.040;2023-03-11T05:51:11;91273.72;;;11.53
28305;BMP280;15569;42.652;23.040;2023-03-11T05:53:37;91279.06;;;11.49
28305;BMP280;15569;42.652;23.040;2023-03-11T05:56:03;91274.44;;;11.56
28305;BMP280;15569;42.652;23.040;2023-03-11T05:58:30;91277.78;;;11.52
28305;BMP280;15569;42.652;23.040;2023-03-11T06:00:56;91277.25;;;11.60
28305;BMP280;15569;42.652;23.040;2023-03-11T06:03:21;91285.44;;;11.60
28305;BMP280;15569;42.652;23.040;2023-03-11T06:05:48;91284.72;;;11.59
28305;BMP280;15569;42.652;23.040;2023-03-11T06:08:14;91283.75;;;11.45
28305;BMP280;15569;42.652;23.040;2023-03-11T06:10:40;91266.78;;;11.48
28305;BMP280;15569;42.652;23.040;2023-03-11T06:13:06;91290.41;;;11.71
28305;BMP280;15569;42.652;23.040;2023-03-11T06:15:33;91284.19;;;11.33
28305;BMP280;15569;42.652;23.040;2023-03-11T06:17:58;91247.84;;;10.85
28305;BMP280;15569;42.652;23.040;2023-03-11T06:20:24;91293.34;;;11.16
28305;BMP280;15569;42.652;23.040;2023-03-11T06:22:50;91287.53;;;11.30
28305;BMP280;15569;42.652;23.040;2023-03-11T06:25:15;91281.84;;;11.51
28305;BMP280;15569;42.652;23.040;2023-03-11T06:27:41;91286.09;;;11.60
28305;BMP280;15569;42.652;23.040;2023-03-11T06:30:09;91293.84;;;11.74
28305;BMP280;15569;42.652;23.040;2023-03-11T06:32:34;91287.09;;;11.77
28305;BMP280;15569;42.652;23.040;2023-03-11T06:35:02;91294.09;;;11.88
28305;BMP280;15569;42.652;23.040;2023-03-11T06:37:27;91297.03;;;12.00
28305;BMP280;15569;42.652;23.040;2023-03-11T06:39:53;91297.94;;;12.11
28305;BMP280;15569;42.652;23.040;2023-03-11T06:42:19;91295.34;;;12.21
28305;BMP280;15569;42.652;23.040;2023-03-11T06:44:47;91292.91;;;12.37
28305;BMP280;15569;42.652;23.040;2023-03-11T06:47:12;91276.59;;;12.41
28305;BMP280;15569;42.652;23.040;2023-03-11T06:49:37;91281.53;;;12.50
28305;BMP280;15569;42.652;23.040;2023-03-11T06:52:05;91293.59;;;12.81
28305;BMP280;15569;42.652;23.040;2023-03-11T06:54:31;91293.69;;;12.89
28305;BMP280;15569;42.652;23.040;2023-03-11T06:56:56;91299.31;;;13.01
28305;BMP280;15569;42.652;23.040;2023-03-11T06:59:21;91288.31;;;12.93
28305;BMP280;15569;42.652;23.040;2023-03-11T07:01:47;91287.19;;;13.10
28305;BMP280;15569;42.652;23.040;2023-03-11T07:04:12;91285.84;;;13.13
28305;BMP280;15569;42.652;23.040;2023-03-11T07:06:38;91268.16;;;13.14
28305;BMP280;15569;42.652;23.040;2023-03-11T07:09:03;91288.81;;;13.31
28305;BMP280;15569;42.652;23.040;2023-03-11T07:11:29;91291.47;;;13.23
28305;BMP280;15569;42.652;23.040;2023-03-11T07:13:54;91281.91;;;13.24
28305;BMP280;15569;42.652;23.040;2023-03-11T07:16:24;91283.28;;;13.25
28305;BMP280;15569;42.652;23.040;2023-03-11T07:18:51;91295.44;;;13.18
28305;BMP280;15569;42.652;23.040;2023-03-11T07:21:20;91296.19;;;13.21
28305;BMP280;15569;42.652;23.040;2023-03-11T07:23:46;91281.38;;;13.36
28305;BMP280;15569;42.652;23.040;2023-03-11T07:26:14;91280.63;;;13.31
28305;BMP280;15569;42.652;23.040;2023-03-11T07:28:40;91271.88;;;13.41
28305;BMP280;15569;42.652;23.040;2023-03-11T07:31:11;91263.91;;;13.59
28305;BMP280;15569;42.652;23.040;2023-03-11T07:33:36;91268.94;;;13.83
28305;BMP280;15569;42.652;23.040;2023-03-11T07:36:11;91259.84;;;13.64
28305;BMP280;15569;42.652;23.040;2023-03-11T07:38:37;91257.38;;;13.86
28305;BMP280;15569;42.652;23.040;2023-03-11T07:41:03;91249.97;;;13.99
28305;BMP280;15569;42.652;23.040;2023-03-11T07:43:28;91248.97;;;13.08
28305;BMP280;15569;42.652;23.040;2023-03-11T07:46:09;91231.50;;;13.31
28305;BMP280;15569;42.652;23.040;2023-03-11T07:48:36;91237.06;;;12.84
28305;BMP280;15569;42.652;23.040;2023-03-11T07:51:04;91246.53;;;12.35
28305;BMP280;15569;42.652;23.040;2023-03-11T07:53:30;91242.06;;;12.53
28305;BMP280;15569;42.652;23.040;2023-03-11T07:55:56;91225.47;;;12.83
28305;BMP280;15569;42.652;23.040;2023-03-11T07:58:22;91234.19;;;13.27
28305;BMP280;15569;42.652;23.040;2023-03-11T08:00:47;91234.44;;;13.47
28305;BMP280;15569;42.652;23.040;2023-03-11T08:03:13;91226.50;;;13.72
28305;BMP280;15569;42.652;23.040;2023-03-11T08:05:38;91229.47;;;14.00
28305;BMP280;15569;42.652;23.040;2023-03-11T08:08:04;91218.75;;;13.48
28305;BMP280;15569;42.652;23.040;2023-03-11T08:10:29;91222.72;;;13.35
28305;BMP280;15569;42.652;23.040;2023-03-11T08:12:54;91204.69;;;13.78
28305;BMP280;15569;42.652;23.040;2023-03-11T08:15:20;91209.91;;;13.51
28305;BMP280;15569;42.652;23.040;2023-03-11T08:17:45;91202.88;;;13.30
28305;BMP280;15569;42.652;23.040;2023-03-11T08:20:11;91201.22;;;13.05
28305;BMP280;15569;42.652;23.040;2023-03-11T08:22:36;91186.53;;;13.34
28305;BMP280;15569;42.652;23.040;2023-03-11T08:25:02;91185.03;;;13.21
28305;BMP280;15569;42.652;23.040;2023-03-11T08:27:28;91197.50;;;12.83
28305;BMP280;15569;42.652;23.040;2023-03-11T08:29:53;91189.06;;;13.18
28305;BMP280;15569;42.652;23.040;2023-03-11T08:32:19;91171.91;;;13.08
28305;BMP280;15569;42.652;23.040;2023-03-11T08:34:44;91184.72;;;12.95
28305;BMP280;15569;42.652;23.040;2023-03-11T08:37:09;91173.31;;;13.11
28305;BMP280;15569;42.652;23.040;2023-03-11T08:39:35;91167.00;;;12.96
28305;BMP280;15569;42.652;23.040;2023-03-11T08:42:00;91164.31;;;12.46
28305;BMP280;15569;42.652;23.040;2023-03-11T08:44:27;91154.47;;;12.75
28305;BMP280;15569;42.652;23.040;2023-03-11T08:46:53;91166.22;;;12.88
28305;BMP280;15569;42.652;23.040;2023-03-11T08:49:18;91169.38;;;13.26
28305;BMP280;15569;42.652;23.040;2023-03-11T08:51:44;91158.09;;;13.54
28305;BMP280;15569;42.652;23.040;2023-03-11T08:54:09;91164.06;;;13.38
28305;BMP280;15569;42.652;23.040;2023-03-11T08:56:34;91156.78;;;13.61
28305;BMP280;15569;42.652;23.040;2023-03-11T08:59:00;91157.81;;;13.99
28305;BMP280;15569;42.652;23.040;2023-03-11T09:01:25;91161.13;;;13.90
28305;BMP280;15569;42.652;23.040;2023-03-11T09:03:51;91162.63;;;14.07
28305;BMP280;15569;42.652;23.040;2023-03-11T09:06:17;91149.00;;;14.09
28305;BMP280;15569;42.652;23.040;2023-03-11T09:08:44;91137.31;;;14.00
28305;BMP280;15569;42.652;23.040;2023-03-11T09:11:10;91147.13;;;14.37
28305;BMP280;15569;42.652;23.040;2023-03-11T09:13:37;91140.25;;;14.28
28305;BMP280;15569;42.652;23.040;2023-03-11T09:16:06;91151.81;;;14.23
28305;BMP280;15569;42.652;23.040;2023-03-11T09:18:31;91147.41;;;13.84
28305;BMP280;15569;42.652;23.040;2023-03-11T09:20:59;91142.09;;;13.98
28305;BMP280;15569;42.652;23.040;2023-03-11T09:23:24;91147.59;;;14.06
28305;BMP280;15569;42.652;23.040;2023-03-11T09:25:50;91145.69;;;13.42
28305;BMP280;15569;42.652;23.040;2023-03-11T09:28:15;91158.44;;;13.96
28305;BMP280;15569;42.652;23.040;2023-03-11T09:30:41;91151.47;;;13.79
28305;BMP280;15569;42.652;23.040;2023-03-11T09:33:06;91144.78;;;13.94
28305;BMP280;15569;42.652;23.040;2023-03-11T09:35:32;91136.69;;;14.04
28305;BMP280;15569;42.652;23.040;2023-03-11T09:37:57;91139.47;;;14.18
28305;BMP280;15569;42.652;23.040;2023-03-11T09:40:24;91142.88;;;14.14
28305;BMP280;15569;42.652;23.040;2023-03-11T09:43:07;91133.28;;;14.09
28305;BMP280;15569;42.652;23.040;2023-03-11T09:45:39;91146.34;;;14.19
28305;BMP280;15569;42.652;23.040;2023-03-11T09:55:56;91154.91;;;13.79
28305;BMP280;15569;42.652;23.040;2023-03-11T10:01:13;91149.69;;;14.11
28305;BMP280;15569;42.652;23.040;2023-03-11T10:03:40;91151.16;;;14.28
28305;BMP280;15569;42.652;23.040;2023-03-11T10:06:19;91151.97;;;14.45
28305;BMP280;15569;42.652;23.040;2023-03-11T10:08:53;91147.03;;;14.21
28305;BMP280;15569;42.652;23.040;2023-03-11T10:14:04;91152.19;;;13.81
28305;BMP280;15569;42.652;23.040;2023-03-11T10:19:32;91156.13;;;13.64
28305;BMP280;15569;42.652;23.040;2023-03-11T10:22:33;91157.41;;;13.57
28305;BMP280;15569;42.652;23.040;2023-03-11T10:27:39;91140.38;;;13.57
28305;BMP280;15569;42.652;23.040;2023-03-11T10:35:46;91151.91;;;13.51
28305;BMP280;15569;42.652;23.040;2023-03-11T10:38:22;91158.03;;;13.47
28305;BMP280;15569;42.652;23.040;2023-03-11T10:40:50;91148.69;;;13.71
28305;BMP280;15569;42.652;23.040;2023-03-11T10:43:27;91164.19;;;13.52
28305;BMP280;15569;42.652;23.040;2023-03-11T10:45:57;91137.44;;;13.34
28305;BMP280;15569;42.652;23.040;2023-03-11T10:48:24;91141.63;;;13.43
28305;BMP280;15569;42.652;23.040;2023-03-11T10:53:19;91136.28;;;13.56
28305;BMP280;15569;42.652;23.040;2023-03-11T10:55:50;91138.31;;;13.57
28305;BMP280;15569;42.652;23.040;2023-03-11T10:58:19;91145.22;;;13.64
28305;BMP280;15569;42.652;23.040;2023-03-11T11:00:45;91146.03;;;13.81
28305;BMP280;15569;42.652;23.040;2023-03-11T11:03:22;91138.00;;;14.01
28305;BMP280;15569;42.652;23.040;2023-03-11T11:05:57;91130.47;;;13.97
28305;BMP280;15569;42.652;23.040;2023-03-11T11:08:23;91150.25;;;13.96
28305;BMP280;15569;42.652;23.040;2023-03-11T11:10:53;91137.91;;;13.89
28305;BMP280;15569;42.652;23.040;2023-03-11T11:13:24;91126.50;;;14.18
28305;BMP280;15569;42.652;23.040;2023-03-11T11:16:05;91130.75;;;14.44
28305;BMP280;15569;42.652;23.040;2023-03-11T11:18:49;91145.34;;;14.86
28305;BMP280;15569;42.652;23.040;2023-03-11T11:21:32;91119.38;;;14.97
28305;BMP280;15569;42.652;23.040;2023-03-11T11:24:29;91133.81;;;15.22
28305;BMP280;15569;42.652;23.040;2023-03-11T11:27:27;91118.84;;;15.49
28305;BMP280;15569;42.652;23.040;2023-03-11T11:30:19;91106.50;;;15.82
28305;BMP280;15569;42.652;23.040;2023-03-11T11:32:45;91115.25;;;14.94
28305;BMP280;15569;42.652;23.040;2023-03-11T11:35:15;91107.03;;;14.88
28305;BMP280;15569;42.652;23.040;2023-03-11T11:37:41;91089.75;;;14.44
28305;BMP280;15569;42.652;23.040;2023-03-11T11:42:43;91069.88;;;14.27
28305;BMP280;15569;42.652;23.040;2023-03-11T11:45:17;91071.22;;;14.26
28305;BMP280;15569;42.652;23.040;2023-03-11T11:47:51;91074.66;;;14.26
28305;BMP280;15569;42.652;23.040;2023-03-11T11:52:54;91075.25;;;14.09
28305;BMP280;15569;42.652;23.040;2023-03-11T11:55:24;91088.19;;;14.06
28305;BMP280;15569;42.652;23.040;2023-03-11T11:57:50;91082.66;;;13.96
28305;BMP280;15569;42.652;23.040;2023-03-11T12:00:23;91084.03;;;13.97
28305;BMP280;15569;42.652;23.040;2023-03-11T12:03:00;91109.91;;;13.88
28305;BMP280;15569;42.652;23.040;2023-03-11T12:05:31;91114.97;;;13.42
28305;BMP280;15569;42.652;23.040;2023-03-11T12:18:35;91068.53;;;13.36
28305;BMP280;15569;42.652;23.040;2023-03-11T12:21:16;91063.69;;;13.26
28305;BMP280;15569;42.652;23.040;2023-03-11T12:26:23;91052.25;;;13.44
28305;BMP280;15569;42.652;23.040;2023-03-11T12:29:00;91050.03;;;13.24
28305;BMP280;15569;42.652;23.040;2023-03-11T12:31:34;91061.19;;;13.55
28305;BMP280;15569;42.652;23.040;2023-03-11T12:34:04;91065.78;;;13.34
28305;BMP280;15569;42.652;23.040;2023-03-11T12:36:39;91062.13;;;13.07
28305;BMP280;15569;42.652;23.040;2023-03-11T12:39:07;91075.66;;;12.95
28305;BMP280;15569;42.652;23.040;2023-03-11T12:41:44;91100.44;;;13.19
28305;BMP280;15569;42.652;23.040;2023-03-11T12:44:29;91086.78;;;12.55
28305;BMP280;15569;42.652;23.040;2023-03-11T12:49:24;91091.13;;;12.77
28305;BMP280;15569;42.652;23.040;2023-03-11T12:54:40;91088.03;;;13.06
28305;BMP280;15569;42.652;23.040;2023-03-11T13:10:45;91110.41;;;13.63
28305;BMP280;15569;42.652;23.040;2023-03-11T13:18:44;91121.19;;;13.48
28305;BMP280;15569;42.652;23.040;2023-03-11T13:23:51;91129.41;;;12.85
28305;BMP280;15569;42.652;23.040;2023-03-11T13:26:21;91149.81;;;12.84
28305;BMP280;15569;42.652;23.040;2023-03-11T13:31:42;91168.69;;;12.20
28305;BMP280;15569;42.652;23.040;2023-03-11T13:44:53;91179.31;;;12.47
28305;BMP280;15569;42.652;23.040;2023-03-11T13:47:20;91178.25;;;12.68
28305;BMP280;15569;42.652;23.040;2023-03-11T13:49:54;91186.13;;;13.00
28305;BMP280;15569;42.652;23.040;2023-03-11T13:52:29;91167.84;;;13.09
28305;BMP280;15569;42.652;23.040;2023-03-11T13:55:02;91180.34;;;13.30
28305;BMP280;15569;42.652;23.040;2023-03-11T13:57:30;91191.84;;;13.20
28305;BMP280;15569;42.652;23.040;2023-03-11T13:59:57;91189.34;;;13.40
28305;BMP280;15569;42.652;23.040;2023-03-11T14:02:28;91174.34;;;13.41
28305;BMP280;15569;42.652;23.040;2023-03-11T14:04:57;91168.97;;;13.49
28305;BMP280;15569;42.652;23.040;2023-03-11T14:07:29;91166.13;;;13.37
28305;BMP280;15569;42.652;23.040;2023-03-11T14:12:36;91198.22;;;13.45
28305;BMP280;15569;42.652;23.040;2023-03-11T14:15:07;91211.66;;;13.23
28305;BMP280;15569;42.652;23.040;2023-03-11T14:17:32;91220.38;;;12.16
28305;BMP280;15569;42.652;23.040;2023-03-11T14:22:29;91226.75;;;11.51
28305;BMP280;15569;42.652;23.040;2023-03-11T14:24:57;91236.44;;;10.92
28305;BMP280;15569;42.652;23.040;2023-03-11T14:27:22;91251.56;;;10.70
28305;BMP280;15569;42.652;23.040;2023-03-11T14:29:48;91263.91;;;10.45
28305;BMP280;15569;42.652;23.040;2023-03-11T14:32:31;91250.63;;;10.27
28305;BMP280;15569;42.652;23.040;2023-03-11T14:34:57;91247.44;;;10.09
28305;BMP280;15569;42.652;23.040;2023-03-11T14:39:50;91257.41;;;10.28
28305;BMP280;15569;42.652;23.040;2023-03-11T14:42:31;91259.03;;;10.40
28305;BMP280;15569;42.652;23.040;2023-03-11T14:45:04;91269.31;;;10.73
28305;BMP280;15569;42.652;23.040;2023-03-11T14:47:41;91271.19;;;10.96
28305;BMP280;15569;42.652;23.040;2023-03-11T14:50:19;91266.81;;;11.15
28305;BMP280;15569;42.652;23.040;2023-03-11T14:52:48;91265.94;;;11.38
28305;BMP280;15569;42.652;23.040;2023-03-11T14:58:00;91265.81;;;11.67
28305;BMP280;15569;42.652;23.040;2023-03-11T15:00:30;91265.50;;;11.87
28305;BMP280;15569;42.652;23.040;2023-03-11T15:05:36;91245.81;;;11.91
28305;BMP280;15569;42.652;23.040;2023-03-11T15:08:03;91249.97;;;11.94
28305;BMP280;15569;42.652;23.040;2023-03-11T15:10:31;91263.88;;;12.10
28305;BMP280;15569;42.652;23.040;2023-03-11T15:13:22;91262.63;;;12.19
28305;BMP280;15569;42.652;23.040;2023-03-11T15:15:57;91283.25;;;12.32
28305;BMP280;15569;42.652;23.040;2023-03-11T15:18:28;91289.22;;;12.20
28305;BMP280;15569;42.652;23.040;2023-03-11T15:23:33;91301.63;;;12.29
28305;BMP280;15569;42.652;23.040;2023-03-11T15:26:00;91312.28;;;11.77
28305;BMP280;15569;42.652;23.040;2023-03-11T15:28:30;91324.41;;;11.39
28305;BMP280;15569;42.652;23.040;2023-03-11T15:33:46;91338.50;;;11.29
28305;BMP280;15569;42.652;23.040;2023-03-11T15:39:20;91343.63;;;11.45
28305;BMP280;15569;42.652;23.040;2023-03-11T15:44:30;91343.38;;;11.03
28305;BMP280;15569;42.652;23.040;2023-03-11T15:46:57;91358.19;;;11.28
28305;BMP280;15569;42.652;23.040;2023-03-11T15:49:27;91367.75;;;10.99
28305;BMP280;15569;42.652;23.040;2023-03-11T15:51:59;91363.19;;;10.80
28305;BMP280;15569;42.652;23.040;2023-03-11T15:54:25;91355.09;;;10.52
28305;BMP280;15569;42.652;23.040;2023-03-11T15:56:50;91382.09;;;10.74
28305;BMP280;15569;42.652;23.040;2023-03-11T15:59:16;91370.13;;;10.85